Time,TemperatureF,DewpointF,PressureIn,WindDirection,WindDirectionDegrees,WindSpeedMPH,WindSpeedGustMPH,Humidity,HourlyPrecipIn,Conditions,Clouds,dailyrainin,SoftwareType,DateUTC
2013-12-21 00:00:00,17.3,13.6,29.84,NNW,340,0.0,0.0,85,0.00,,,0.00,Wunderground v.1.12,2013-12-21 07:00:00,
2013-12-21 00:10:00,17.0,13.3,29.84,NNW,340,0.0,0.0,85,0.00,,,0.00,Wunderground v.1.12,2013-12-21 07:10:00,
2013-12-21 00:15:00,17.0,13.3,29.83,NNW,340,0.0,0.0,85,0.00,,,0.00,Wunderground v.1.12,2013-12-21 07:15:00,
2013-12-21 00:25:00,16.9,13.2,29.83,NNW,340,0.0,0.0,85,0.00,,,0.00,Wunderground v.1.12,2013-12-21 07:25:00,
2013-12-21 00:30:00,16.9,13.2,29.83,N/A,-737280,0.0,0.0,85,0.00,,,0.00,Wunderground v.1.12,2013-12-21 07:30:00,
2013-12-21 00:40:00,16.7,13.0,29.82,NNW,340,0.0,0.0,85,0.00,,,0.00,Wunderground v.1.12,2013-12-21 07:40:00,
2013-12-21 00:45:00,16.5,12.8,29.82,NNW,340,0.0,0.0,85,0.00,,,0.00,Wunderground v.1.12,2013-12-21 07:45:00,
2013-12-21 00:50:00,16.5,12.8,29.82,N/A,-737280,0.0,0.0,85,0.00,,,0.00,Wunderground v.1.12,2013-12-21 07:50:00,
2013-12-21 00:55:00,16.5,12.8,29.82,NNW,340,0.0,0.0,85,0.00,,,0.00,Wunderground v.1.12,2013-12-21 07:55:00,
2013-12-21 01:00:00,16.5,12.8,29.82,NNW,338,0.0,1.0,85,0.00,,,0.00,Wunderground v.1.12,2013-12-21 08:00:00,
2013-12-21 01:15:00,16.2,12.5,29.80,NNW,340,0.0,0.0,85,0.00,,,0.00,Wunderground v.1.12,2013-12-21 08:15:00,
2013-12-21 01:25:00,16.5,12.8,29.80,NNW,340,0.0,0.0,85,0.00,,,0.00,Wunderground v.1.12,2013-12-21 08:25:00,
2013-12-21 01:35:00,16.7,13.0,29.80,NNW,340,0.0,0.0,85,0.00,,,0.00,Wunderground v.1.12,2013-12-21 08:35:00,
2013-12-21 01:45:00,16.9,13.2,29.80,NNW,340,0.0,0.0,85,0.00,,,0.00,Wunderground v.1.12,2013-12-21 08:45:00,
2013-12-21 01:55:00,16.7,13.0,29.80,NNW,340,0.0,0.0,85,0.00,,,0.00,Wunderground v.1.12,2013-12-21 08:55:00,
2013-12-21 02:00:00,16.7,13.0,29.80,N/A,-737280,0.0,0.0,85,0.00,,,0.00,Wunderground v.1.12,2013-12-21 09:00:00,
2013-12-21 02:10:00,16.9,13.4,29.79,NNW,340,0.0,0.0,86,0.00,,,0.00,Wunderground v.1.12,2013-12-21 09:10:00,
2013-12-21 02:20:00,17.3,13.8,29.77,NNW,340,0.0,0.0,86,0.00,,,0.00,Wunderground v.1.12,2013-12-21 09:20:00,
2013-12-21 02:25:00,17.7,14.2,29.77,NNW,340,0.0,0.0,86,0.00,,,0.00,Wunderground v.1.12,2013-12-21 09:25:00,
2013-12-21 02:30:00,17.7,14.2,29.77,N/A,-737280,0.0,0.0,86,0.00,,,0.00,Wunderground v.1.12,2013-12-21 09:30:00,
2013-12-21 02:35:00,17.7,14.2,29.76,NNW,340,0.0,0.0,86,0.00,,,0.00,Wunderground v.1.12,2013-12-21 09:35:00,
2013-12-21 02:45:00,17.7,14.2,29.75,NNW,340,0.0,0.0,86,0.00,,,0.00,Wunderground v.1.12,2013-12-21 09:45:00,
2013-12-21 02:50:00,17.5,13.8,29.75,NNW,340,0.0,0.0,85,0.00,,,0.00,Wunderground v.1.12,2013-12-21 09:50:00,
2013-12-21 02:55:00,17.5,13.8,29.75,NNW,340,0.0,0.0,85,0.00,,,0.00,Wunderground v.1.12,2013-12-21 09:55:00,
2013-12-21 03:00:00,17.5,13.8,29.75,N/A,-737280,0.0,0.0,85,0.00,,,0.00,Wunderground v.1.12,2013-12-21 10:00:00,
2013-12-21 03:10:00,17.3,13.6,29.75,NNW,340,0.0,0.0,85,0.00,,,0.00,Wunderground v.1.12,2013-12-21 10:10:00,
2013-12-21 03:15:00,17.3,13.6,29.76,NNW,340,0.0,0.0,85,0.00,,,0.00,Wunderground v.1.12,2013-12-21 10:15:00,
2013-12-21 03:25:00,17.3,13.6,29.76,NNW,340,0.0,0.0,85,0.00,,,0.00,Wunderground v.1.12,2013-12-21 10:25:00,
2013-12-21 03:30:00,17.3,13.6,29.76,N/A,-737280,0.0,0.0,85,0.00,,,0.00,Wunderground v.1.12,2013-12-21 10:30:00,
2013-12-21 03:35:00,17.2,13.5,29.76,NNW,340,0.0,0.0,85,0.00,,,0.00,Wunderground v.1.12,2013-12-21 10:35:00,
2013-12-21 03:45:00,16.9,13.2,29.75,NNW,340,0.0,0.0,85,0.00,,,0.00,Wunderground v.1.12,2013-12-21 10:45:00,
2013-12-21 03:55:00,16.5,12.8,29.75,NNW,340,0.0,0.0,85,0.00,,,0.00,Wunderground v.1.12,2013-12-21 10:55:00,
2013-12-21 04:00:00,16.5,12.8,29.75,N/A,-737280,0.0,0.0,85,0.00,,,0.00,Wunderground v.1.12,2013-12-21 11:00:00,
2013-12-21 04:10:00,16.4,12.7,29.75,NNW,340,0.0,0.0,85,0.00,,,0.00,Wunderground v.1.12,2013-12-21 11:10:00,
2013-12-21 04:15:00,16.2,12.5,29.76,NNW,340,0.0,0.0,85,0.00,,,0.00,Wunderground v.1.12,2013-12-21 11:15:00,
2013-12-21 04:25:00,15.9,11.9,29.76,NNW,340,0.0,0.0,84,0.00,,,0.00,Wunderground v.1.12,2013-12-21 11:25:00,
2013-12-21 04:30:00,15.7,12.0,29.75,NNW,340,0.0,0.0,85,0.00,,,0.00,Wunderground v.1.12,2013-12-21 11:30:00,
2013-12-21 04:35:00,15.7,12.0,29.75,NNW,340,0.0,0.0,85,0.00,,,0.00,Wunderground v.1.12,2013-12-21 11:35:00,
2013-12-21 04:45:00,15.6,11.9,29.76,NNW,340,0.0,0.0,85,0.00,,,0.00,Wunderground v.1.12,2013-12-21 11:45:00,
2013-12-21 04:55:00,15.6,11.9,29.76,NNW,340,0.0,0.0,85,0.00,,,0.00,Wunderground v.1.12,2013-12-21 11:55:00,
2013-12-21 05:00:00,15.6,11.9,29.76,NNW,340,0.0,0.0,85,0.00,,,0.00,Wunderground v.1.12,2013-12-21 12:00:00,
2013-12-21 05:10:00,15.4,11.7,29.76,NNW,340,0.0,0.0,85,0.00,,,0.00,Wunderground v.1.12,2013-12-21 12:10:00,
2013-12-21 05:15:00,15.2,11.2,29.78,NNW,340,0.0,0.0,84,0.00,,,0.00,Wunderground v.1.12,2013-12-21 12:15:00,
2013-12-21 05:25:00,14.8,10.8,29.78,NNW,340,0.0,0.0,84,0.00,,,0.00,Wunderground v.1.12,2013-12-21 12:25:00,
2013-12-21 05:30:00,14.8,10.8,29.78,N/A,-737280,0.0,0.0,84,0.00,,,0.00,Wunderground v.1.12,2013-12-21 12:30:00,
2013-12-21 05:35:00,14.3,10.1,29.79,NNW,340,0.0,0.0,83,0.00,,,0.00,Wunderground v.1.12,2013-12-21 12:35:00,
2013-12-21 05:45:00,14.1,9.9,29.81,NNW,340,0.0,0.0,83,0.00,,,0.00,Wunderground v.1.12,2013-12-21 12:45:00,
2013-12-21 05:50:00,14.0,9.8,29.81,NNW,340,0.0,0.0,83,0.00,,,0.00,Wunderground v.1.12,2013-12-21 12:50:00,
2013-12-21 05:55:00,13.8,9.6,29.81,NNW,340,0.0,0.0,83,0.00,,,0.00,Wunderground v.1.12,2013-12-21 12:55:00,
2013-12-21 06:00:00,13.8,9.6,29.81,N/A,-737280,0.0,0.0,83,0.00,,,0.00,Wunderground v.1.12,2013-12-21 13:00:00,
2013-12-21 06:10:00,14.0,10.1,29.81,NNW,340,0.0,0.0,84,0.00,,,0.00,Wunderground v.1.12,2013-12-21 13:10:00,
2013-12-21 06:15:00,13.8,9.6,29.82,NNW,340,0.0,0.0,83,0.00,,,0.00,Wunderground v.1.12,2013-12-21 13:15:00,
2013-12-21 06:25:00,13.6,9.4,29.82,NNW,340,0.0,0.0,83,0.00,,,0.00,Wunderground v.1.12,2013-12-21 13:25:00,
2013-12-21 06:30:00,13.6,9.4,29.82,N/A,-737280,0.0,0.0,83,0.00,,,0.00,Wunderground v.1.12,2013-12-21 13:30:00,
2013-12-21 06:35:00,13.5,9.3,29.82,NNW,340,0.0,0.0,83,0.00,,,0.00,Wunderground v.1.12,2013-12-21 13:35:00,
2013-12-21 06:45:00,13.1,8.9,29.84,NNW,340,0.0,0.0,83,0.00,,,0.00,Wunderground v.1.12,2013-12-21 13:45:00,
2013-12-21 06:55:00,13.3,9.4,29.84,NNW,340,0.0,0.0,84,0.00,,,0.00,Wunderground v.1.12,2013-12-21 13:55:00,
2013-12-21 07:00:00,13.3,9.4,29.84,N/A,-737280,0.0,0.0,84,0.00,,,0.00,Wunderground v.1.12,2013-12-21 14:00:00,
2013-12-21 07:10:00,14.4,10.7,29.83,NNW,339,0.0,0.0,85,0.00,,,0.00,Wunderground v.1.12,2013-12-21 14:10:00,
2013-12-21 07:20:00,14.8,11.1,29.84,NNW,339,0.0,0.0,85,0.00,,,0.00,Wunderground v.1.12,2013-12-21 14:20:00,
2013-12-21 07:25:00,14.8,11.4,29.84,NNW,339,0.0,0.0,86,0.00,,,0.00,Wunderground v.1.12,2013-12-21 14:25:00,
2013-12-21 07:35:00,14.8,11.1,29.83,NNW,339,0.0,0.0,85,0.00,,,0.00,Wunderground v.1.12,2013-12-21 14:35:00,
2013-12-21 07:45:00,14.6,10.9,29.84,NNW,339,0.0,0.0,85,0.00,,,0.00,Wunderground v.1.12,2013-12-21 14:45:00,
2013-12-21 07:55:00,15.2,11.8,29.84,NNW,339,0.0,0.0,86,0.00,,,0.00,Wunderground v.1.12,2013-12-21 14:55:00,
2013-12-21 08:00:00,15.2,11.8,29.83,N/A,-737280,0.0,0.0,86,0.00,,,0.00,Wunderground v.1.12,2013-12-21 15:00:00,
2013-12-21 08:10:00,16.1,12.9,29.83,NNW,339,0.0,0.0,87,0.00,,,0.00,Wunderground v.1.12,2013-12-21 15:10:00,
2013-12-21 08:20:00,16.1,12.9,29.83,N/A,-737280,0.0,0.0,87,0.00,,,0.00,Wunderground v.1.12,2013-12-21 15:20:00,
2013-12-21 08:25:00,16.5,13.3,29.81,NNW,339,0.0,0.0,87,0.00,,,0.00,Wunderground v.1.12,2013-12-21 15:25:00,
2013-12-21 08:35:00,16.7,13.5,29.81,NNW,339,0.0,0.0,87,0.00,,,0.00,Wunderground v.1.12,2013-12-21 15:35:00,
2013-12-21 08:40:00,16.9,13.7,29.81,NNW,339,0.0,0.0,87,0.00,,,0.00,Wunderground v.1.12,2013-12-21 15:40:00,
2013-12-21 08:45:00,17.2,14.0,29.81,NNW,339,0.0,0.0,87,0.00,,,0.00,Wunderground v.1.12,2013-12-21 15:45:00,
2013-12-21 08:55:00,18.1,15.1,29.81,NNW,339,0.0,0.0,88,0.00,,,0.00,Wunderground v.1.12,2013-12-21 15:55:00,
2013-12-21 09:00:00,18.4,15.4,29.82,NNW,339,0.0,0.0,88,0.00,,,0.00,Wunderground v.1.12,2013-12-21 16:00:00,
2013-12-21 09:10:00,19.4,16.4,29.82,NNW,339,0.0,0.0,88,0.00,,,0.00,Wunderground v.1.12,2013-12-21 16:10:00,
2013-12-21 09:20:00,20.8,17.8,29.80,NNW,339,0.0,0.0,88,0.00,,,0.00,Wunderground v.1.12,2013-12-21 16:20:00,
2013-12-21 09:30:00,21.6,18.6,29.80,NNW,339,0.0,0.0,88,0.00,,,0.00,Wunderground v.1.12,2013-12-21 16:30:00,
2013-12-21 09:35:00,21.9,18.9,29.80,NNW,339,0.0,0.0,88,0.00,,,0.00,Wunderground v.1.12,2013-12-21 16:35:00,
2013-12-21 09:40:00,22.1,19.1,29.80,NNW,339,0.0,0.0,88,0.00,,,0.00,Wunderground v.1.12,2013-12-21 16:40:00,
2013-12-21 09:45:00,22.2,19.2,29.81,NNW,339,0.0,0.0,88,0.00,,,0.00,Wunderground v.1.12,2013-12-21 16:45:00,
2013-12-21 09:50:00,22.4,19.4,29.81,NNW,339,0.0,0.0,88,0.00,,,0.00,Wunderground v.1.12,2013-12-21 16:50:00,
2013-12-21 09:55:00,22.5,19.5,29.81,NNW,339,0.0,0.0,88,0.00,,,0.00,Wunderground v.1.12,2013-12-21 16:55:00,
2013-12-21 10:00:00,22.5,19.5,29.81,NNW,339,0.0,0.0,88,0.00,,,0.00,Wunderground v.1.12,2013-12-21 17:00:00,
2013-12-21 10:10:00,22.7,19.7,29.81,NNW,339,0.0,0.0,88,0.00,,,0.00,Wunderground v.1.12,2013-12-21 17:10:00,
2013-12-21 10:15:00,22.7,19.7,29.81,NNW,338,0.0,1.0,88,0.00,,,0.00,Wunderground v.1.12,2013-12-21 17:15:00,
2013-12-21 10:20:00,22.9,19.6,29.81,NNW,340,0.0,0.0,87,0.00,,,0.00,Wunderground v.1.12,2013-12-21 17:20:00,
2013-12-21 10:30:00,22.9,19.6,29.82,NNW,340,0.0,2.0,87,0.00,,,0.00,Wunderground v.1.12,2013-12-21 17:30:00,
2013-12-21 10:40:00,23.0,19.7,29.82,NNW,346,0.0,0.0,87,0.00,,,0.00,Wunderground v.1.12,2013-12-21 17:40:00,
2013-12-21 10:50:00,23.2,19.9,29.82,NNW,346,0.0,0.0,87,0.00,,,0.00,Wunderground v.1.12,2013-12-21 17:50:00,
2013-12-21 10:55:00,23.0,19.7,29.82,NNW,346,0.0,0.0,87,0.00,,,0.00,Wunderground v.1.12,2013-12-21 17:55:00,
2013-12-21 11:00:00,23.0,19.7,29.82,NNW,338,1.0,2.0,87,0.00,,,0.00,Wunderground v.1.12,2013-12-21 18:00:00,
2013-12-21 11:10:00,23.5,20.2,29.82,NNW,346,0.0,0.0,87,0.00,,,0.00,Wunderground v.1.12,2013-12-21 18:10:00,
2013-12-21 11:20:00,25.0,21.4,29.82,NNW,346,0.0,0.0,86,0.00,,,0.00,Wunderground v.1.12,2013-12-21 18:20:00,
2013-12-21 11:25:00,25.4,21.5,29.82,NNW,346,0.0,0.0,85,0.00,,,0.00,Wunderground v.1.12,2013-12-21 18:25:00,
2013-12-21 11:30:00,25.8,21.6,29.81,NNW,346,0.0,0.0,84,0.00,,,0.00,Wunderground v.1.12,2013-12-21 18:30:00,
2013-12-21 11:40:00,26.7,21.7,29.81,NNW,346,0.0,0.0,81,0.00,,,0.00,Wunderground v.1.12,2013-12-21 18:40:00,
2013-12-21 11:45:00,26.7,21.7,29.81,NNW,338,0.0,2.0,81,0.00,,,0.00,Wunderground v.1.12,2013-12-21 18:45:00,
2013-12-21 11:50:00,27.6,21.3,29.79,NNW,339,1.0,1.0,77,0.00,,,0.00,Wunderground v.1.12,2013-12-21 18:50:00,
2013-12-21 11:55:00,27.9,21.3,29.79,NNW,342,1.0,1.0,76,0.00,,,0.00,Wunderground v.1.12,2013-12-21 18:55:00,
2013-12-21 12:00:00,28.1,21.2,29.79,NNW,338,1.0,3.0,75,0.00,,,0.00,Wunderground v.1.12,2013-12-21 19:00:00,
2013-12-21 12:10:00,28.7,21.1,29.79,NNW,332,1.0,3.0,73,0.00,,,0.00,Wunderground v.1.12,2013-12-21 19:10:00,
2013-12-21 12:15:00,28.4,20.8,29.78,North,353,2.0,2.0,73,0.00,,,0.00,Wunderground v.1.12,2013-12-21 19:15:00,
2013-12-21 12:20:00,28.4,20.8,29.78,NW,311,1.0,2.0,73,0.00,,,0.00,Wunderground v.1.12,2013-12-21 19:20:00,
2013-12-21 12:30:00,28.5,20.6,29.77,NNW,339,1.0,2.0,72,0.00,,,0.00,Wunderground v.1.12,2013-12-21 19:30:00,
2013-12-21 12:35:00,28.7,20.1,29.77,North,349,1.0,5.0,70,0.00,,,0.00,Wunderground v.1.12,2013-12-21 19:35:00,
2013-12-21 12:45:00,29.1,20.2,29.77,NW,316,1.0,1.0,69,0.00,,,0.00,Wunderground v.1.12,2013-12-21 19:45:00,
2013-12-21 12:55:00,29.4,19.8,29.77,North,359,1.0,1.0,67,0.00,,,0.00,Wunderground v.1.12,2013-12-21 19:55:00,
2013-12-21 13:00:00,29.5,19.5,29.77,NNW,337,2.0,2.0,66,0.00,,,0.00,Wunderground v.1.12,2013-12-21 20:00:00,
2013-12-21 13:10:00,29.8,19.1,29.77,NNW,343,1.0,1.0,64,0.00,,,0.00,Wunderground v.1.12,2013-12-21 20:10:00,
2013-12-21 13:15:00,30.0,19.3,29.77,NNW,337,1.0,1.0,64,0.00,,,0.00,Wunderground v.1.12,2013-12-21 20:15:00,
2013-12-21 13:20:00,30.0,19.3,29.77,NNW,338,1.0,5.0,64,0.00,,,0.00,Wunderground v.1.12,2013-12-21 20:20:00,
2013-12-21 13:30:00,30.0,18.9,29.78,North,352,1.0,2.0,63,0.00,,,0.00,Wunderground v.1.12,2013-12-21 20:30:00,
2013-12-21 13:35:00,29.8,18.7,29.78,NNW,339,1.0,1.0,63,0.00,,,0.00,Wunderground v.1.12,2013-12-21 20:35:00,
2013-12-21 13:40:00,29.5,18.4,29.78,NW,306,1.0,2.0,63,0.00,,,0.00,Wunderground v.1.12,2013-12-21 20:40:00,
2013-12-21 13:45:00,29.5,18.4,29.78,NNW,338,2.0,7.0,63,0.00,,,0.00,Wunderground v.1.12,2013-12-21 20:45:00,
2013-12-21 13:55:00,28.8,18.5,29.78,NNW,344,2.0,2.0,65,0.00,,,0.00,Wunderground v.1.12,2013-12-21 20:55:00,
2013-12-21 14:00:00,29.0,18.7,29.79,NNW,337,1.0,1.0,65,0.00,,,0.00,Wunderground v.1.12,2013-12-21 21:00:00,
2013-12-21 14:10:00,29.0,19.1,29.79,NW,309,1.0,1.0,66,0.00,,,0.00,Wunderground v.1.12,2013-12-21 21:10:00,
2013-12-21 14:20:00,29.0,19.1,29.80,NNW,343,1.0,1.0,66,0.00,,,0.00,Wunderground v.1.12,2013-12-21 21:20:00,
2013-12-21 14:25:00,29.0,18.7,29.80,NW,320,1.0,1.0,65,0.00,,,0.00,Wunderground v.1.12,2013-12-21 21:25:00,
2013-12-21 14:30:00,29.0,18.7,29.80,NNW,338,2.0,6.0,65,0.00,,,0.00,Wunderground v.1.12,2013-12-21 21:30:00,
2013-12-21 14:40:00,29.0,19.4,29.81,NNW,343,1.0,1.0,67,0.00,,,0.00,Wunderground v.1.12,2013-12-21 21:40:00,
2013-12-21 14:45:00,29.0,19.8,29.82,NNE,20,0.0,2.0,68,0.00,,,0.00,Wunderground v.1.12,2013-12-21 21:45:00,
2013-12-21 14:50:00,28.8,19.6,29.82,North,0,1.0,1.0,68,0.00,,,0.00,Wunderground v.1.12,2013-12-21 21:50:00,
2013-12-21 15:00:00,28.4,19.5,29.83,NNE,17,0.0,0.0,69,0.00,,,0.00,Wunderground v.1.12,2013-12-21 22:00:00,
2013-12-21 15:10:00,27.8,19.3,29.83,North,0,1.0,1.0,70,0.00,,,0.00,Wunderground v.1.12,2013-12-21 22:10:00,
2013-12-21 15:15:00,27.5,19.0,29.86,NNW,344,1.0,1.0,70,0.00,,,0.00,Wunderground v.1.12,2013-12-21 22:15:00,
2013-12-21 15:20:00,27.5,19.0,29.86,North,349,0.0,0.0,70,0.00,,,0.00,Wunderground v.1.12,2013-12-21 22:20:00,
2013-12-21 15:25:00,27.5,19.0,29.86,North,349,0.0,0.0,70,0.00,,,0.00,Wunderground v.1.12,2013-12-21 22:25:00,
2013-12-21 15:35:00,27.3,18.8,29.87,North,350,0.0,0.0,70,0.00,,,0.00,Wunderground v.1.12,2013-12-21 22:35:00,
2013-12-21 15:45:00,27.2,19.0,29.88,North,0,0.0,0.0,71,0.00,,,0.00,Wunderground v.1.12,2013-12-21 22:45:00,
2013-12-21 15:55:00,27.0,18.8,29.88,North,1,0.0,0.0,71,0.00,,,0.00,Wunderground v.1.12,2013-12-21 22:55:00,
2013-12-21 16:00:00,27.0,18.8,29.88,N/A,-737280,0.0,0.0,71,0.00,,,0.00,Wunderground v.1.12,2013-12-21 23:00:00,
2013-12-21 16:10:00,26.6,18.8,29.89,North,0,0.0,0.0,72,0.00,,,0.00,Wunderground v.1.12,2013-12-21 23:10:00,
2013-12-21 16:15:00,26.6,18.8,29.90,North,0,0.0,0.0,72,0.00,,,0.00,Wunderground v.1.12,2013-12-21 23:15:00,
2013-12-21 16:20:00,26.6,18.8,29.90,North,0,0.0,0.0,72,0.00,,,0.00,Wunderground v.1.12,2013-12-21 23:20:00,
2013-12-21 16:25:00,26.4,18.9,29.90,North,0,0.0,0.0,73,0.00,,,0.00,Wunderground v.1.12,2013-12-21 23:25:00,
2013-12-21 16:35:00,26.4,18.9,29.91,North,0,0.0,0.0,73,0.00,,,0.00,Wunderground v.1.12,2013-12-21 23:35:00,
2013-12-21 16:45:00,26.4,18.9,29.92,North,0,0.0,0.0,73,0.00,,,0.00,Wunderground v.1.12,2013-12-21 23:45:00,
2013-12-21 16:50:00,26.4,18.9,29.92,North,0,0.0,0.0,73,0.00,,,0.00,Wunderground v.1.12,2013-12-21 23:50:00,
2013-12-21 16:55:00,26.4,19.2,29.92,North,0,0.0,0.0,74,0.00,,,0.00,Wunderground v.1.12,2013-12-21 23:55:00,
2013-12-21 17:00:00,26.4,19.2,29.92,N/A,-737280,0.0,0.0,74,0.00,,,0.00,Wunderground v.1.12,2013-12-22 00:00:00,
2013-12-21 17:10:00,26.6,18.8,29.93,NNW,344,0.0,2.0,72,0.00,,,0.00,Wunderground v.1.12,2013-12-22 00:10:00,
2013-12-21 17:20:00,26.6,18.8,29.93,NNW,338,0.0,2.0,72,0.00,,,0.00,Wunderground v.1.12,2013-12-22 00:20:00,
2013-12-21 17:25:00,26.7,18.9,29.96,NNW,344,0.0,0.0,72,0.00,,,0.00,Wunderground v.1.12,2013-12-22 00:25:00,
2013-12-21 17:35:00,26.6,18.8,29.97,NNW,344,0.0,0.0,72,0.00,,,0.00,Wunderground v.1.12,2013-12-22 00:35:00,
2013-12-21 17:40:00,26.4,18.6,29.97,NNW,344,0.0,0.0,72,0.00,,,0.00,Wunderground v.1.12,2013-12-22 00:40:00,
2013-12-21 17:45:00,26.3,18.5,29.98,NNW,344,0.0,0.0,72,0.00,,,0.00,Wunderground v.1.12,2013-12-22 00:45:00,
2013-12-21 17:50:00,26.3,18.5,29.98,NNW,338,0.0,2.0,72,0.00,,,0.00,Wunderground v.1.12,2013-12-22 00:50:00,
2013-12-21 18:00:00,26.1,18.3,29.99,NNW,344,1.0,1.0,72,0.00,,,0.00,Wunderground v.1.12,2013-12-22 01:00:00,
2013-12-21 18:10:00,26.1,18.6,29.99,NNW,333,1.0,1.0,73,0.00,,,0.00,Wunderground v.1.12,2013-12-22 01:10:00,
2013-12-21 18:20:00,26.1,18.6,29.99,NNW,338,1.0,2.0,73,0.00,,,0.00,Wunderground v.1.12,2013-12-22 01:20:00,
2013-12-21 18:25:00,25.8,19.0,30.00,NNW,333,0.0,0.0,75,0.00,,,0.00,Wunderground v.1.12,2013-12-22 01:25:00,
2013-12-21 18:30:00,25.8,19.0,30.00,NNW,338,0.0,2.0,75,0.00,,,0.00,Wunderground v.1.12,2013-12-22 01:30:00,
2013-12-21 18:35:00,25.6,19.1,30.01,NNW,333,0.0,0.0,76,0.00,,,0.00,Wunderground v.1.12,2013-12-22 01:35:00,
2013-12-21 18:45:00,25.4,19.5,30.03,NNW,333,0.0,0.0,78,0.00,,,0.00,Wunderground v.1.12,2013-12-22 01:45:00,
2013-12-21 18:50:00,25.3,19.7,30.03,NNW,333,0.0,0.0,79,0.00,,,0.00,Wunderground v.1.12,2013-12-22 01:50:00,
2013-12-21 18:55:00,25.3,20.0,30.03,NNW,333,0.0,0.0,80,0.00,,,0.00,Wunderground v.1.12,2013-12-22 01:55:00,
2013-12-21 19:05:00,25.0,20.0,30.04,NNW,333,0.0,0.0,81,0.00,,,0.00,Wunderground v.1.12,2013-12-22 02:05:00,
2013-12-21 19:15:00,24.8,20.1,30.03,NNW,333,0.0,0.0,82,0.00,,,0.00,Wunderground v.1.12,2013-12-22 02:15:00,
2013-12-21 19:20:00,24.8,20.4,30.03,NNW,333,0.0,0.0,83,0.00,,,0.00,Wunderground v.1.12,2013-12-22 02:20:00,
2013-12-21 19:30:00,24.7,20.3,30.04,NNW,333,0.0,0.0,83,0.00,,,0.00,Wunderground v.1.12,2013-12-22 02:30:00,
2013-12-21 19:35:00,24.7,20.3,30.04,NNW,333,0.0,0.0,83,0.00,,,0.00,Wunderground v.1.12,2013-12-22 02:35:00,
2013-12-21 19:45:00,24.7,20.6,30.04,NNW,333,0.0,0.0,84,0.00,,,0.00,Wunderground v.1.12,2013-12-22 02:45:00,
2013-12-21 19:50:00,24.7,20.6,30.04,NNW,333,0.0,0.0,84,0.00,,,0.00,Wunderground v.1.12,2013-12-22 02:50:00,
2013-12-21 20:00:00,24.7,20.8,30.04,NNW,333,0.0,0.0,85,0.00,,,0.00,Wunderground v.1.12,2013-12-22 03:00:00,
2013-12-21 20:10:00,24.7,20.8,30.04,NNW,333,0.0,0.0,85,0.00,,,0.00,Wunderground v.1.12,2013-12-22 03:10:00,
2013-12-21 20:15:00,24.7,20.8,30.03,NNW,333,0.0,0.0,85,0.00,,,0.00,Wunderground v.1.12,2013-12-22 03:15:00,
2013-12-21 20:25:00,24.7,20.8,30.03,NNW,333,0.0,0.0,85,0.00,,,0.00,Wunderground v.1.12,2013-12-22 03:25:00,
2013-12-21 20:30:00,24.7,20.8,30.04,NNW,333,0.0,0.0,85,0.00,,,0.00,Wunderground v.1.12,2013-12-22 03:30:00,
2013-12-21 20:35:00,24.7,21.1,30.04,NNW,333,0.0,0.0,86,0.00,,,0.00,Wunderground v.1.12,2013-12-22 03:35:00,
2013-12-21 20:40:00,24.7,21.1,30.04,NNW,333,0.0,0.0,86,0.00,,,0.00,Wunderground v.1.12,2013-12-22 03:40:00,
2013-12-21 20:50:00,24.7,21.1,30.03,N/A,-737280,0.0,0.0,86,0.00,,,0.00,Wunderground v.1.12,2013-12-22 03:50:00,
2013-12-21 20:55:00,24.5,20.9,30.04,NNW,333,0.0,0.0,86,0.00,,,0.00,Wunderground v.1.12,2013-12-22 03:55:00,
2013-12-21 21:00:00,24.5,20.9,30.04,N/A,-737280,0.0,0.0,86,0.00,,,0.00,Wunderground v.1.12,2013-12-22 04:00:00,
2013-12-21 21:10:00,24.5,20.9,30.04,NNW,333,0.0,0.0,86,0.00,,,0.00,Wunderground v.1.12,2013-12-22 04:10:00,
2013-12-21 21:20:00,24.4,20.8,30.02,NNW,333,0.0,0.0,86,0.00,,,0.00,Wunderground v.1.12,2013-12-22 04:20:00,
2013-12-21 21:30:00,24.1,20.5,30.02,NNW,333,0.0,0.0,86,0.00,,,0.00,Wunderground v.1.12,2013-12-22 04:30:00,
2013-12-21 21:35:00,23.9,20.3,30.02,NNW,333,0.0,0.0,86,0.00,,,0.00,Wunderground v.1.12,2013-12-22 04:35:00,
2013-12-21 21:45:00,23.5,19.9,30.02,NNW,333,0.0,0.0,86,0.00,,,0.00,Wunderground v.1.12,2013-12-22 04:45:00,
2013-12-21 21:55:00,23.0,19.4,30.02,NNW,333,0.0,0.0,86,0.00,,,0.00,Wunderground v.1.12,2013-12-22 04:55:00,
2013-12-21 22:00:00,23.0,19.4,30.02,N/A,-737280,0.0,0.0,86,0.00,,,0.00,Wunderground v.1.12,2013-12-22 05:00:00,
2013-12-21 22:05:00,22.4,18.8,30.03,NNW,333,0.0,0.0,86,0.00,,,0.00,Wunderground v.1.12,2013-12-22 05:05:00,
2013-12-21 22:15:00,21.8,18.3,30.04,NNW,333,0.0,0.0,86,0.00,,,0.00,Wunderground v.1.12,2013-12-22 05:15:00,
2013-12-21 22:25:00,21.3,17.8,30.04,NNW,333,0.0,0.0,86,0.00,,,0.00,Wunderground v.1.12,2013-12-22 05:25:00,
2013-12-21 22:30:00,21.0,17.5,30.05,NNW,333,0.0,0.0,86,0.00,,,0.00,Wunderground v.1.12,2013-12-22 05:30:00,
2013-12-21 22:40:00,20.6,17.1,30.05,NNW,333,0.0,0.0,86,0.00,,,0.00,Wunderground v.1.12,2013-12-22 05:40:00,
2013-12-21 22:45:00,20.8,17.3,30.06,NNW,333,0.0,0.0,86,0.00,,,0.00,Wunderground v.1.12,2013-12-22 05:45:00,
2013-12-21 22:50:00,21.0,17.7,30.06,NNW,333,0.0,0.0,87,0.00,,,0.00,Wunderground v.1.12,2013-12-22 05:50:00,
2013-12-21 23:00:00,21.0,17.7,30.06,NNW,333,0.0,0.0,87,0.00,,,0.00,Wunderground v.1.12,2013-12-22 06:00:00,
2013-12-21 23:05:00,21.0,17.7,30.06,N/A,-737280,0.0,0.0,87,0.00,,,0.00,Wunderground v.1.12,2013-12-22 06:05:00,
2013-12-21 23:10:00,20.6,17.3,30.06,NNW,333,0.0,0.0,87,0.00,,,0.00,Wunderground v.1.12,2013-12-22 06:10:00,
2013-12-21 23:20:00,20.6,17.3,30.03,NNW,333,0.0,0.0,87,0.00,,,0.00,Wunderground v.1.12,2013-12-22 06:20:00,
2013-12-21 23:25:00,20.5,17.2,30.03,NNW,333,0.0,0.0,87,0.00,,,0.00,Wunderground v.1.12,2013-12-22 06:25:00,
2013-12-21 23:35:00,20.5,17.2,30.03,N/A,-737280,0.0,0.0,87,0.00,,,0.00,Wunderground v.1.12,2013-12-22 06:35:00,
2013-12-21 23:40:00,20.0,16.8,30.03,NNW,333,0.0,0.0,87,0.00,,,0.00,Wunderground v.1.12,2013-12-22 06:40:00,
2013-12-21 23:45:00,19.9,16.7,30.04,NNW,333,0.0,0.0,87,0.00,,,0.00,Wunderground v.1.12,2013-12-22 06:45:00,
2013-12-21 23:55:00,19.4,15.9,30.04,NNW,333,0.0,0.0,86,0.00,,,0.00,Wunderground v.1.12,2013-12-22 06:55:00,